This is the latest recevied weather packets stored in our database for station/object W3UGI. If no packets are shown the sender has not sent any weather packets the latest 1 day(s).
| Time | Temp. | Humidity | Pressure | Rain* | Wind** | Luminosity | Snow |
|---|---|---|---|---|---|---|---|
| 1778003332 | 26.67° C | 44% | 1009.3 hPa | 0 mm | 1.34 m/s, 217° | - | - |
| 1778002403 | 26.67° C | 45% | 1009.5 hPa | 0 mm | 2.68 m/s, 171° | - | - |
| 1778001506 | 26.11° C | 48% | 1009.7 hPa | 0 mm | 1.79 m/s, 160° | - | - |
| 1778000603 | 26.11° C | 45% | 1009.7 hPa | 0 mm | 4.02 m/s, 227° | - | - |
| 1777999714 | 26.11° C | 48% | 1009.8 hPa | 0 mm | 2.68 m/s, 212° | - | - |
| 1777998831 | 26.11° C | 47% | 1009.9 hPa | 0 mm | 2.24 m/s, 217° | - | - |
| 1777997899 | 26.11° C | 48% | 1010 hPa | 0 mm | 1.34 m/s, 164° | - | - |
| 1777997018 | 26.11° C | 46% | 1010.1 hPa | 0 mm | 2.24 m/s, 212° | - | - |
| 1777996109 | 26.11° C | 46% | 1010.2 hPa | 0 mm | 1.79 m/s, 219° | - | - |
| 1777995203 | 26.11° C | 46% | 1010.4 hPa | 0 mm | 1.34 m/s, 217° | - | - |
| 1777994301 | 25.56° C | 46% | 1010.4 hPa | 0 mm | 2.24 m/s, 201° | - | - |
| 1777993416 | 25° C | 50% | 1010.4 hPa | 0 mm | 0.89 m/s, 189° | - | - |
| 1777992508 | 25° C | 47% | 1010.4 hPa | 0 mm | 1.34 m/s, 210° | - | - |
| 1777991598 | 24.44° C | 49% | 1010.5 hPa | 0 mm | 0 m/s | - | - |
| 1777990703 | 23.89° C | 52% | 1010.7 hPa | 0 mm | 0 m/s | - | - |
| 1777989800 | 22.78° C | 54% | 1010.8 hPa | 0 mm | 0.45 m/s, 190° | - | - |
| 1777988934 | 21.67° C | 56% | 1011.1 hPa | 0 mm | 0.45 m/s, 219° | - | - |
| 1777988004 | 21.67° C | 56% | 1011.2 hPa | 0 mm | 0.89 m/s, 191° | - | - |
| 1777987115 | 20.56° C | 59% | 1011.3 hPa | 0 mm | 1.34 m/s, 192° | - | - |
| 1777986202 | 20° C | 60% | 1011.2 hPa | 0 mm | 0.89 m/s, 320° | - | - |
| 1777985331 | 19.44° C | 61% | 1011.1 hPa | 0 mm | 1.79 m/s, 279° | - | - |
| 1777984399 | 18.89° C | 64% | 1011 hPa | 0 mm | 0 m/s | - | - |
| 1777983516 | 18.33° C | 65% | 1010.9 hPa | 0 mm | 0.45 m/s, 220° | - | - |
| 1777982604 | 17.78° C | 67% | 1010.9 hPa | 0 mm | 1.34 m/s, 225° | - | - |
| 1777981701 | 17.78° C | 68% | 1010.9 hPa | 0 mm | 1.34 m/s, 220° | - | - |
* Rain latest hour (hover to see other rain measurements)
** Current wind speed in m/s (hover to see current wind gust speed)